Latest Weather Observations for Paraburdoo

IDW60801

Issued at 10:04 pm WST Sunday 19 February 2017 (issued every 30 minutes, with the page automatically refreshed every 10 minutes)

About weather observations | Map of weather stations | Latest weather observations for WA | Other Formats
Station Details ID: 007185 Name: PARABURDOO AERO Lat: -23.17 Lon: 117.75 Height: 423.7 m
Data from the previous 72 hours. | See also: Recent months at Paraburdoo
Date/Time
WST
Temp
°C
App
Temp
°C
Dew
Point
°C
Rel
Hum
%
Delta-T
°C
Wind Press
QNH
hPa
Press
MSL
hPa
Rain since
9am
mm
Dir  Spd
km/h
Gust
km/h
Spd
kts
Gust
kts
19/10:00pm 29.1 33.9 22.1 66 4.8 CALM 0 0 0 0 1012.8 1009.2 0.0
19/09:30pm 29.5 32.1 20.1 57 6.3 ENE 6 7 3 4 1012.7 1009.1 0.0
19/09:22pm 29.4 32.2 20.5 58 6.0 ENE 6 7 3 4 1012.5 1008.9 0.0
19/09:09pm 29.4 32.1 20.3 58 6.1 E 6 7 3 4 1012.6 1009.0 0.0
19/09:00pm 29.5 31.9 20.9 60 5.8 E 9 9 5 5 1012.5 1008.9 0.0
19/08:30pm 30.0 33.0 20.8 57 6.2 E 6 7 3 4 1012.3 1008.7 0.0
19/08:00pm 31.2 33.2 19.2 48 8.0 ESE 7 7 4 4 1012.2 1008.6 0.0
19/07:30pm 31.8 32.8 17.7 43 9.2 ESE 9 9 5 5 1012.0 1008.3 0.0
19/07:00pm 33.2 32.6 15.7 35 11.1 ESE 13 17 7 9 1011.6 1007.9 0.0
19/06:30pm 34.5 33.8 15.4 32 12.1 ESE 13 19 7 10 1011.2 1007.5 0.0
19/06:00pm 35.5 34.6 15.8 31 12.6 E 15 20 8 11 1010.8 1007.2 0.0
19/05:30pm 35.7 35.2 15.9 30 12.7 ESE 13 20 7 11 1010.8 1007.2 0.0
19/05:00pm 36.0 34.8 16.2 31 12.8 ESE 17 22 9 12 1010.9 1007.3 0.0
19/04:30pm 36.0 35.6 16.2 31 12.8 SE 13 20 7 11 1011.2 1007.5 0.0
19/04:00pm 36.3 36.2 14.9 28 13.6 ESE 9 15 5 8 1011.5 1007.8 0.0
19/03:30pm 36.4 35.0 15.5 29 13.4 ESE 17 24 9 13 1011.6 1007.9 0.0
19/03:00pm 36.3 34.8 15.4 28 13.4 ESE 17 24 9 13 1011.9 1008.2 0.0
19/02:30pm 36.1 35.1 14.7 28 13.5 ESE 13 22 7 12 1012.1 1008.5 0.0
19/02:00pm 35.5 34.6 15.8 31 12.6 ESE 15 22 8 12 1012.3 1008.7 0.0
19/01:30pm 35.6 34.9 15.3 29 12.9 ESE 13 20 7 11 1012.5 1008.9 0.0
19/01:00pm 35.4 34.1 15.7 31 12.6 E 17 28 9 15 1012.8 1009.2 0.0
19/12:30pm 34.9 34.3 16.7 34 11.8 ENE 15 20 8 11 1013.2 1009.6 0.0
19/12:00pm 34.7 33.5 15.1 31 12.4 E 15 20 8 11 1013.4 1009.8 0.0
19/11:30am 34.1 32.2 15.1 32 12.0 ENE 19 28 10 15 1013.9 1010.2 0.0
19/11:00am 33.1 31.4 14.7 33 11.5 NE 17 24 9 13 1014.2 1010.6 0.0
19/10:30am 32.5 30.9 15.1 35 10.9 ENE 17 28 9 15 1014.7 1011.1 0.0
19/10:00am 32.1 30.3 16.0 38 10.2 ENE 20 28 11 15 1014.9 1011.3 0.0
19/09:30am 31.2 28.9 15.6 39 9.8 NE 22 32 12 17 1015.2 1011.6 0.0
19/09:00am 30.6 28.7 16.6 43 8.9 NE 22 30 12 16 1015.2 1011.6 0.4
19/08:30am 28.3 31.8 22.8 72 3.8 E 9 11 5 6 1015.3 1011.7 0.4
19/08:00am 27.7 32.0 23.3 77 3.1 E 6 9 3 5 1015.4 1011.8 0.4
19/07:30am 26.2 32.1 24.1 88 1.5 CALM 0 0 0 0 1015.3 1011.7 0.4
19/07:00am 25.0 31.3 24.8 99 0.1 CALM 0 0 0 0 1015.2 1011.6 0.4
19/06:30am 24.7 29.7 24.5 99 0.1 S 6 7 3 4 1014.9 1011.3 0.4
19/06:00am 24.5 30.5 24.3 99 0.1 CALM 0 0 0 0 1014.7 1011.1 0.4
19/05:30am 24.7 30.1 24.5 99 0.1 NW 4 7 2 4 1014.4 1010.8 0.4
19/05:00am 25.1 30.3 24.8 98 0.2 W 6 7 3 4 1014.1 1010.4 0.4
19/04:30am 25.2 29.9 25.0 99 0.1 W 9 11 5 6 1014.2 1010.6 0.4
19/04:00am 25.6 31.2 25.4 99 0.1 WSW 6 9 3 5 1013.8 1010.1 0.4
19/03:30am 25.1 31.5 24.9 99 0.1 CALM 0 0 0 0 1013.8 1010.1 0.4
19/03:00am 25.2 31.7 25.0 99 0.1 CALM 0 7 0 4 1013.6 1009.9 0.4
19/02:30am 25.4 30.8 25.2 99 0.1 NW 6 7 3 4 1013.4 1009.8 0.4
19/02:00am 25.5 30.8 25.3 99 0.1 NNW 7 9 4 5 1013.6 1009.9 0.4
19/01:30am 25.7 31.3 25.5 99 0.1 WNW 6 7 3 4 1013.6 1009.9 0.4
19/01:00am 26.1 31.4 25.9 99 0.1 WSW 9 13 5 7 1013.7 1010.0 0.4
19/12:30am 26.2 32.0 26.0 99 0.1 NW 7 9 4 5 1013.6 1009.9 0.4
19/12:00am 26.3 32.3 26.0 98 0.2 WNW 6 7 3 4 1013.7 1010.0 0.4
 
Date/Time
WST
Temp
°C
App
Temp
°C
Dew
Point
°C
Rel
Hum
%
Delta-T
°C
Wind Press
QNH
hPa
Press
MSL
hPa
Rain since
9am
mm
Dir  Spd
km/h
Gust
km/h
Spd
kts
Gust
kts
18/11:30pm 27.1 33.7 25.3 90 1.3 CALM 0 0 0 0 1013.7 1010.0 0.4
18/11:00pm 27.1 34.0 25.7 92 1.0 CALM 0 0 0 0 1014.0 1010.3 0.4
18/10:30pm 26.9 33.1 26.6 98 0.2 S 7 11 4 6 1014.3 1010.7 0.4
18/10:00pm 27.1 34.7 26.8 98 0.2 CALM 0 0 0 0 1014.2 1010.6 0.4
18/09:30pm 27.0 33.4 26.7 98 0.2 ENE 6 7 3 4 1014.0 1010.3 0.4
18/09:00pm 27.0 32.3 25.0 89 1.4 NNE 6 9 3 5 1013.7 1010.0 0.4
18/08:30pm 26.7 31.8 24.7 89 1.4 S 6 7 3 4 1013.4 1009.8 0.4
18/08:00pm 27.1 33.2 24.4 85 1.9 CALM 0 0 0 0 1013.3 1009.7 0.2
18/07:30pm 27.2 32.1 23.7 81 2.4 W 4 7 2 4 1013.1 1009.5 0.2
18/07:00pm 27.4 31.2 22.8 76 3.2 W 7 9 4 5 1012.9 1009.3 0.2
18/06:30pm 28.0 30.9 21.1 66 4.7 SSW 7 11 4 6 1013.1 1009.5 0.2
18/06:00pm 28.6 29.8 19.8 59 5.8 W 13 19 7 10 1012.7 1009.1 0.2
18/05:30pm 27.8 28.5 19.6 61 5.4 S 15 20 8 11 1012.3 1008.7 0.2
18/05:00pm 29.2 26.8 18.3 51 7.1 SSE 28 41 15 22 1012.2 1008.6 0.2
18/04:35pm 32.2 29.9 20.1 48 8.1 ESE 32 50 17 27 1011.8 1008.1 0.2
18/04:30pm 32.4 29.5 20.0 48 8.3 ESE 35 50 19 27 1011.9 1008.2 0.2
18/04:04pm 35.0 32.9 19.0 39 10.7 E 28 48 15 26 1011.6 1007.9 0.2
18/04:00pm 34.7 31.4 18.3 38 10.9 E 33 48 18 26 1011.4 1007.7 0.2
18/03:57pm 34.5 31.7 17.3 36 11.2 E 28 48 15 26 1011.4 1007.7 0.2
18/03:30pm 35.9 36.1 19.3 37 11.2 ESE 17 24 9 13 1011.6 1007.9 0.2
18/03:00pm 35.2 35.1 19.6 40 10.5 E 19 28 10 15 1012.1 1008.5 0.2
18/02:30pm 35.5 35.7 19.4 38 10.8 ENE 17 24 9 13 1012.4 1008.8 0.2
18/02:00pm 36.2 36.5 20.8 40 10.6 ENE 20 28 11 15 1012.6 1009.0 0.2
18/01:30pm 36.1 37.9 21.1 41 10.3 NE 13 28 7 15 1012.9 1009.3 0.2
18/01:00pm 35.6 38.3 22.9 48 8.9 NE 13 24 7 13 1013.2 1009.6 0.2
18/12:30pm 34.7 35.9 21.4 46 9.2 ENE 17 26 9 14 1013.7 1010.0 0.2
18/12:00pm 33.7 35.7 21.5 49 8.4 ENE 13 20 7 11 1013.9 1010.2 0.2
18/11:30am 33.4 34.9 20.5 46 8.8 ESE 13 22 7 12 1014.2 1010.6 0.2
18/11:00am 32.7 34.4 20.9 49 8.0 E 13 22 7 12 1014.5 1010.9 0.2
18/10:30am 31.6 33.2 19.9 50 7.8 E 11 17 6 9 1014.8 1011.2 0.2
18/10:00am 30.9 32.2 20.2 53 7.2 ESE 13 19 7 10 1015.0 1011.4 0.2
18/09:30am 30.1 31.9 21.2 59 6.0 E 13 20 7 11 1015.2 1011.6 0.2
18/09:00am 29.1 31.6 21.8 64 5.0 NE 11 17 6 9 1015.4 1011.8 20.2
18/08:30am 27.7 30.6 22.4 73 3.6 NNE 11 13 6 7 1015.3 1011.7 20.2
18/08:00am 27.9 31.1 21.7 69 4.2 E 7 9 4 5 1015.3 1011.7 20.2
18/07:30am 26.7 30.4 22.5 78 2.9 SE 7 9 4 5 1015.1 1011.5 20.2
18/07:00am 25.1 29.9 24.4 96 0.5 NE 7 9 4 5 1014.9 1011.3 20.2
18/06:30am 23.9 28.4 23.7 99 0.1 E 6 7 3 4 1014.7 1011.1 20.2
18/06:00am 23.8 28.1 23.6 99 0.1 NE 7 9 4 5 1014.4 1010.8 20.2
18/05:30am 23.8 27.6 23.5 98 0.2 NE 9 13 5 7 1014.2 1010.6 20.2
18/05:00am 23.5 26.9 23.3 99 0.1 ENE 11 13 6 7 1014.0 1010.3 20.2
18/04:30am 23.3 27.6 23.3 100 0.0 NE 6 6 3 3 1013.3 1009.7 20.2
18/04:00am 23.6 27.4 23.4 99 0.1 NE 9 9 5 5 1013.1 1009.5 20.2
18/03:30am 23.5 28.9 23.3 99 0.1 CALM 0 0 0 0 1012.8 1009.2 20.2
18/03:00am 23.8 29.0 23.6 99 0.1 ESE 2 9 1 5 1012.7 1009.1 20.2
18/02:30am 23.8 29.0 23.5 98 0.2 SE 2 9 1 5 1012.4 1008.8 20.2
18/02:00am 24.1 27.7 23.8 98 0.2 S 11 15 6 8 1012.6 1009.0 20.2
18/01:30am 23.8 28.1 23.6 99 0.1 SSE 7 13 4 7 1012.6 1009.0 20.2
18/01:00am 23.7 27.5 23.5 99 0.1 ESE 9 9 5 5 1012.7 1009.1 20.2
18/12:30am 23.6 27.4 23.4 99 0.1 SSE 9 11 5 6 1012.9 1009.3 20.2
18/12:00am 23.7 27.5 23.5 99 0.1 SW 9 13 5 7 1013.3 1009.7 20.2
 
Date/Time
WST
Temp
°C
App
Temp
°C
Dew
Point
°C
Rel
Hum
%
Delta-T
°C
Wind Press
QNH
hPa
Press
MSL
hPa
Rain since
9am
mm
Dir  Spd
km/h
Gust
km/h
Spd
kts
Gust
kts
17/11:30pm 23.8 27.6 23.5 98 0.2 NE 9 15 5 8 1014.2 1010.6 20.2
17/11:00pm 24.5 25.7 23.8 96 0.5 N 24 33 13 18 1014.3 1010.7 20.2
17/10:30pm 23.8 27.8 23.8 100 0.0 ENE 9 17 5 9 1014.7 1011.1 20.2
17/10:00pm 23.8 26.6 23.6 99 0.1 NE 15 22 8 12 1014.6 1011.0 20.0
17/09:30pm 23.8 27.3 23.6 99 0.1 E 11 15 6 8 1015.5 1011.9 19.0
17/09:00pm 24.5 27.2 24.2 98 0.2 ENE 17 28 9 15 1015.4 1011.8 18.2
17/08:30pm 23.5 25.7 23.3 99 0.1 ENE 17 26 9 14 1014.7 1011.1 18.0
17/08:00pm 24.0 26.8 23.7 98 0.2 N 15 19 8 10 1013.8 1010.1 17.2
17/07:30pm 24.5 25.0 22.0 86 1.7 ENE 22 28 12 15 1014.1 1010.4 15.8
17/07:28pm 24.8 25.4 22.1 85 1.8 ENE 22 28 12 15 1014.2 1010.6 15.2
17/07:11pm 24.9 25.6 23.7 93 0.8 NE 26 39 14 21 1013.6 1009.9 13.6
17/07:00pm 26.9 25.4 22.1 75 3.3 NE 33 54 18 29 1012.9 1009.3 11.6
17/06:54pm 27.7 27.7 21.7 70 4.1 NNE 24 54 13 29 1012.8 1009.2 11.6
17/06:30pm 26.6 29.0 23.7 84 2.0 N 17 26 9 14 1011.5 1007.8 11.6
17/06:00pm 26.6 31.3 24.3 87 1.6 NNE 7 13 4 7 1010.8 1007.2 11.6
17/05:30pm 27.0 29.4 22.2 75 3.3 SSE 13 22 7 12 1011.3 1007.6 11.6
17/05:00pm 26.6 29.8 22.4 78 2.9 W 9 11 5 6 1010.5 1006.9 11.6
17/04:30pm 25.6 28.1 23.1 86 1.7 WNW 15 20 8 11 1011.4 1007.7 11.6
17/04:00pm 25.4 25.9 21.9 81 2.4 W 22 30 12 16 1011.0 1007.4 11.6
17/03:30pm 25.5 26.8 22.6 84 2.0 SW 20 32 11 17 1010.2 1006.6 11.4
17/03:20pm 25.1 26.7 23.2 89 1.3 SSW 20 32 11 17 1010.7 1007.1 11.4
17/03:04pm 25.1 23.5 21.8 82 2.2 S 33 87 18 47 1010.0 1006.4 11.2
17/03:00pm 23.9 19.5 21.2 85 1.8 ENE 46 87 25 47 1011.4 1007.7 10.4
17/02:58pm 23.6 17.2 19.5 78 2.7 ENE 52 87 28 47 1012.3 1008.7 7.2
17/02:56pm 25.1 19.7 23.0 88 1.4 ENE 56 82 30 44 1012.3 1008.7 5.2
17/02:50pm 25.8 23.4 20.4 72 3.6 ENE 33 80 18 43 1010.8 1007.2 1.2
17/02:49pm 26.4 24.0 19.0 63 4.8 E 30 80 16 43 1010.6 1007.0 0.6
17/02:47pm 32.8 31.6 17.0 38 10.2 ESE 19 80 10 43 1010.3 1006.7 0.0
17/02:30pm 36.3 37.2 18.4 35 11.9 NE 11 19 6 10 1009.7 1006.0 0.0
17/02:00pm 36.4 38.1 19.4 37 11.5 NE 9 15 5 8 1010.3 1006.7 0.0
17/01:30pm 36.0 36.2 17.7 34 12.1 SSE 13 20 7 11 1010.7 1007.1 0.0
17/01:00pm 35.2 34.5 18.3 36 11.2 ESE 19 22 10 12 1011.0 1007.4 0.0
17/12:30pm 34.9 35.4 19.3 40 10.5 ENE 15 30 8 16 1011.5 1007.8 0.0
17/12:00pm 34.4 34.9 20.0 42 9.7 ENE 17 24 9 13 1011.8 1008.1 0.0
17/11:30am 34.5 34.8 20.5 44 9.5 ENE 19 28 10 15 1012.0 1008.3 0.0
17/11:00am 33.3 33.6 20.5 47 8.7 NE 19 26 10 14 1012.4 1008.8 0.0
17/10:30am 33.4 35.4 22.2 52 7.8 ENE 15 24 8 13 1012.6 1009.0 0.0
17/10:00am 30.3 32.5 21.1 58 6.2 ESE 11 17 6 9 1013.0 1009.4 0.0
17/09:30am 30.1 31.0 22.0 62 5.6 ENE 20 30 11 16 1013.2 1009.6 0.0
17/09:00am 28.0 29.8 21.1 66 4.7 ENE 13 19 7 10 1013.6 1009.9 2.6
17/08:30am 27.5 28.3 20.6 66 4.6 E 17 32 9 17 1013.4 1009.8 2.6
17/08:00am 28.1 27.3 20.1 62 5.3 ESE 24 35 13 19 1013.2 1009.6 2.4
17/07:30am 26.8 26.8 20.2 67 4.4 E 20 28 11 15 1013.2 1009.6 2.4
17/07:00am 25.7 27.3 20.0 71 3.8 E 11 19 6 10 1012.9 1009.3 2.4
17/06:30am 24.8 26.0 19.8 74 3.3 ENE 13 17 7 9 1012.5 1008.9 2.4
17/06:00am 24.7 25.7 19.5 73 3.4 E 13 20 7 11 1012.2 1008.6 2.4
17/05:30am 25.6 25.2 18.8 66 4.4 E 19 28 10 15 1011.9 1008.2 2.4
17/05:00am 25.5 25.5 18.9 67 4.3 ENE 17 22 9 12 1011.5 1007.8 2.4
17/04:30am 25.6 27.8 19.7 70 3.9 N 7 9 4 5 1011.3 1007.6 2.4
17/04:00am 25.5 26.3 19.9 71 3.7 NE 15 19 8 10 1010.9 1007.3 2.4
17/03:30am 25.6 28.3 20.6 74 3.3 NNE 7 11 4 6 1011.2 1007.5 2.4
17/03:00am 26.0 26.9 20.8 73 3.5 E 17 32 9 17 1010.9 1007.3 2.4
17/02:30am 25.9 26.5 21.3 76 3.1 ESE 20 30 11 16 1011.4 1007.7 2.4
17/02:00am 25.5 27.7 22.6 84 2.0 E 15 22 8 12 1011.9 1008.2 2.4
17/01:30am 25.4 29.5 23.3 88 1.4 NE 7 11 4 6 1011.6 1007.9 2.4
17/01:00am 25.8 29.1 22.5 82 2.3 N 9 13 5 7 1011.7 1008.0 2.4
17/12:30am 25.8 29.0 22.3 81 2.4 N 9 9 5 5 1011.6 1007.9 2.4
17/12:00am 26.0 28.7 21.4 76 3.1 E 9 13 5 7 1012.0 1008.3 2.4
 
Date/Time
WST
Temp
°C
App
Temp
°C
Dew
Point
°C
Rel
Hum
%
Delta-T
°C
Wind Press
QNH
hPa
Press
MSL
hPa
Rain since
9am
mm
Dir  Spd
km/h
Gust
km/h
Spd
kts
Gust
kts
16/11:30pm 26.9 28.9 22.3 76 3.1 ENE 15 20 8 11 1012.2 1008.6 2.4
16/11:00pm 27.4 31.2 22.8 76 3.2 NNW 7 9 4 5 1011.8 1008.1 2.4
16/10:30pm 28.0 32.6 21.8 69 4.2 CALM 0 0 0 0 1011.8 1008.1 2.4

Other Formats:

Comma delimited format used in spreadsheet applications
http://www.bom.gov.au/fwo/IDW60801/IDW60801.94316.axf

JavaScript Object Notation format (JSON) in row-major order
http://www.bom.gov.au/fwo/IDW60801/IDW60801.94316.json